Latest Coastal Weather Observations for Maatsuyker Island

IDT60701

Issued at 7:35 pm EDT Sunday 23 November 2014 (issued every 10 minutes, with the page automatically refreshed every 10 minutes)

About coastal observations | Map of coastal stations | Coastal observations for TAS | Marine services | Other Formats
Station Details ID: 094041 Name: MAATSUYKER ISLAND LIGHTHOUSE Lat: -43.66 Lon: 146.27 Height: 146.5 m
Data from the previous 72 hours. | See also: Recent months at Maatsuyker Island
Date/Time
EDT
Temp

°C
Wind Pressure Rain
since 9am
mm
Weather Cloud Vis
km
Sea
Height
m
Swell
Dir
 
Speed
knots
Gust
knots
hPa Trend Height
m
Period
s
Dir
23/07:30pm 13.7 NNW 20 27 1010.2 - 0.0 - - - - - - -
23/07:00pm 14.0 NNW 18 23 1010.2 - 0.0 - - - - - - -
23/06:30pm 14.5 NNW 18 22 1009.8 - 0.0 - - - - - - -
23/06:00pm 13.8 NNW 24 29 1009.6 - 0.0 - - - - - - -
23/05:30pm 13.6 NW 25 29 1009.4 - 0.0 - - - - - - -
23/05:00pm 13.9 NNW 21 25 1009.3 - 0.0 - - - - - - -
23/04:30pm 14.0 NNW 22 26 1008.9 - 0.0 - - - - - - -
23/04:00pm 13.8 NNW 24 29 1009.0 - 0.0 - - - - - - -
23/03:30pm 13.8 NNW 26 29 1009.3 - 0.0 - - - - - - -
23/03:00pm 13.7 NW 23 32 1009.1 R 0.0 Haze Mostly clear 12 1 1.5 14 SW
23/02:30pm 13.8 NNW 26 33 1008.9 - 0.0 - - - - - - -
23/02:00pm 13.2 NNW 28 33 1008.6 - 0.0 - - - - - - -
23/01:30pm 13.0 NNW 32 37 1008.4 - 0.0 - - - - - - -
23/01:00pm 12.8 NNW 33 39 1008.1 - 0.0 - - - - - - -
23/12:30pm 13.3 NNW 33 41 1008.1 - 0.0 - - - - - - -
23/12:00pm 13.2 NNW 30 37 1008.0 - 0.0 - - - - - - -
23/11:30am 13.0 NNW 31 36 1007.8 - 0.0 - - - - - - -
23/11:00am 12.6 NNW 32 37 1007.7 - 0.0 - - - - - - -
23/10:30am 12.0 NNW 30 35 1007.9 - 0.0 - - - - - - -
23/10:00am 12.1 NNW 30 34 1007.7 - 0.0 - - - - - - -
23/09:30am 11.8 NNW 26 31 1007.8 - 0.0 - - - - - - -
23/09:00am 11.8 NW 22 30 1007.5 R 1.8 Haze Partly cloudy 15 1 2.0 15 SW
23/08:30am 11.6 NNW 25 30 1007.0 - 1.8 - - - - - - -
23/08:00am 11.4 NW 28 32 1006.7 - 1.8 - - - - - - -
23/07:30am 11.3 NW 29 33 1006.1 - 1.8 - - - - - - -
23/07:00am 11.6 NW 29 34 1005.5 - 1.8 - - - - - - -
23/06:30am 11.8 NNW 26 30 1005.1 - 1.8 - - - - - - -
23/06:00am 11.5 NW 23 31 1005.0 R 1.8 Distant precip. Mostly cloudy 8 1 1.5 14 SW
23/05:30am 11.6 NW 28 33 1004.5 - 1.8 - - - - - - -
23/05:00am 11.8 NNW 28 32 1004.1 - 1.8 - - - - - - -
23/04:30am 12.0 NNW 27 32 1003.7 - 1.8 - - - - - - -
23/04:00am 11.8 NW 29 32 1003.5 - 1.8 - - - - - - -
23/03:30am 11.9 NW 27 29 1003.6 - 1.8 - - - - - - -
23/03:00am 12.0 NNW 27 31 1003.7 - 1.8 - - - - - - -
23/02:30am 12.1 NW 26 29 1003.6 - 1.8 - - - - - - -
23/02:00am 12.3 NNW 26 29 1003.5 - 1.8 - - - - - - -
23/01:30am 12.5 NW 26 29 1003.3 - 1.8 - - - - - - -
23/01:00am 12.6 NNW 19 23 1003.6 - 1.6 - - - - - - -
23/12:30am 12.7 NNW 18 21 1003.6 - 0.8 - - - - - - -
23/12:00am 12.8 NNW 17 21 1003.6 - 0.8 - - - - - - -
 
Date/Time
EDT
Temp

°C
Wind Pressure Rain
since 9am
mm
Weather Cloud Vis
km
Sea
Height
m
Swell
Dir
 
Speed
knots
Gust
knots
hPa Trend Height
m
Period
s
Dir
22/11:30pm 13.0 NNW 18 21 1003.7 - 0.8 - - - - - - -
22/11:00pm 13.4 NNW 22 25 1003.3 - 0.8 - - - - - - -
22/10:30pm 13.6 NNW 22 26 1003.4 - 0.8 - - - - - - -
22/10:00pm 13.9 NNW 21 27 1003.3 - 0.8 - - - - - - -
22/09:30pm 14.2 NNW 18 25 1003.2 - 0.8 - - - - - - -
22/09:20pm 14.0 NNW 17 27 1003.1 - 0.8 - - - - - - -
22/09:00pm 13.7 NNW 14 18 1003.0 - 0.8 - - - - - - -
22/08:30pm 13.3 NNW 12 16 1003.2 - 0.8 - - - - - - -
22/08:00pm 13.5 N 17 22 1003.2 - 0.8 - - - - - - -
22/07:30pm 13.1 NNW 20 26 1003.4 - 0.8 - - - - - - -
22/07:00pm 13.3 NNW 22 28 1003.3 - 0.4 - - - - - - -
22/06:30pm 14.6 NNW 22 32 1003.1 - 0.2 - - - - - - -
22/06:01pm 14.9 NNW 20 31 1002.6 - 0.2 - - - - - - -
22/06:00pm 14.8 NNW 19 28 1002.7 - 0.2 - - - - - - -
22/05:30pm 14.8 NNW 19 22 1002.9 - 0.2 - - - - - - -
22/05:01pm 15.1 NNW 27 37 1002.5 - 0.2 - - - - - - -
22/05:00pm 15.0 NNW 28 37 1002.5 - 0.2 - - - - - - -
22/04:39pm 15.4 NNW 33 39 1002.0 - 0.2 - - - - - - -
22/04:31pm 15.2 NNW 21 32 1002.4 - 0.2 - - - - - - -
22/04:30pm 15.2 NNW 21 27 1002.6 - 0.2 - - - - - - -
22/04:00pm 15.3 NNW 24 36 1002.7 - 0.2 - - - - - - -
22/03:32pm 15.1 NNW 28 38 1002.7 - 0.2 - - - - - - -
22/03:30pm 15.2 NNW 30 38 1002.6 - 0.2 - - - - - - -
22/03:00pm 15.2 NW 20 33 1002.7 F 0.2 Distant precip. Mostly cloudy 15 1 2.0 13 SW
22/02:30pm 15.7 NNW 28 37 1002.6 - 0.2 - - - - - - -
22/02:05pm 15.3 NNW 22 32 1002.8 - 0.2 - - - - - - -
22/02:00pm 15.1 NNW 20 26 1003.2 - 0.2 - - - - - - -
22/01:30pm 14.5 NNW 20 30 1003.6 - 0.2 - - - - - - -
22/01:07pm 14.5 NNW 23 33 1003.9 - 0.2 - - - - - - -
22/01:00pm 14.5 NNW 24 33 1003.6 - 0.2 - - - - - - -
22/12:54pm 14.3 NNW 22 32 1003.7 - 0.2 - - - - - - -
22/12:30pm 13.9 NNW 22 29 1003.8 - 0.2 - - - - - - -
22/12:00pm 13.4 NNW 25 33 1004.0 - 0.2 - - - - - - -
22/11:48am 13.1 NNW 25 35 1003.6 - 0.2 - - - - - - -
22/11:30am 13.0 NNW 25 31 1004.1 - 0.2 - - - - - - -
22/11:13am 13.8 NNW 23 33 1003.9 - 0.2 - - - - - - -
22/11:00am 13.1 NNW 21 29 1004.2 - 0.2 - - - - - - -
22/10:39am 13.1 NNW 22 32 1004.0 - 0.2 - - - - - - -
22/10:30am 12.9 NNW 22 29 1004.0 - 0.0 - - - - - - -
22/10:00am 12.8 NNW 25 32 1004.4 - 0.0 - - - - - - -
22/09:30am 13.1 NNW 26 36 1003.5 - 0.0 - - - - - - -
22/09:21am 12.7 NNW 26 36 1003.8 - 0.0 - - - - - - -
22/09:00am 12.4 WNW 23 35 1004.1 F 0.2 Drizzle Cloudy 8 1 1.5 14 SW
22/08:30am 11.9 NNW 25 34 1004.3 - 0.2 - - - - - - -
22/08:00am 11.8 NNW 26 32 1004.2 - 0.2 - - - - - - -
22/07:30am 11.3 NNW 25 33 1004.5 - 0.2 - - - - - - -
22/07:00am 12.1 NNW 25 37 1004.5 - 0.2 - - - - - - -
22/06:44am 12.0 NNW 24 34 1004.4 - 0.2 - - - - - - -
22/06:30am 12.2 NNW 27 36 1004.1 - 0.2 - - - - - - -
22/06:13am 12.3 NNW 23 35 1004.1 - 0.2 - - - - - - -
22/06:00am 12.6 NW 18 29 1004.3 R 0.2 Showers Mostly cloudy 4 1 1.5 13 SW
22/05:56am 13.0 NNW 21 31 1004.1 - 0.2 - - - - - - -
22/05:30am 12.9 NNW 22 29 1003.9 - 0.2 - - - - - - -
22/05:18am 12.8 NNW 22 33 1003.7 - 0.2 - - - - - - -
22/05:00am 12.6 NNW 22 29 1003.9 - 0.2 - - - - - - -
22/04:30am 12.7 NNW 22 29 1003.5 - 0.2 - - - - - - -
22/04:00am 12.5 NNW 21 29 1003.7 - 0.2 - - - - - - -
22/03:30am 12.4 NNW 21 25 1003.8 - 0.2 - - - - - - -
22/03:14am 12.5 NNW 20 31 1003.9 - 0.2 - - - - - - -
22/03:00am 12.4 NNW 22 30 1004.1 - 0.2 - - - - - - -
22/02:30am 12.4 NNW 22 28 1004.6 - 0.2 - - - - - - -
22/02:00am 12.1 NNW 22 28 1004.8 - 0.2 - - - - - - -
22/01:30am 11.7 NNW 20 25 1005.8 - 0.2 - - - - - - -
22/01:09am 11.4 NNW 18 28 1006.0 - 0.2 - - - - - - -
22/01:00am 11.3 NNW 18 26 1006.4 - 0.2 - - - - - - -
22/12:30am 11.0 N 15 22 1006.7 - 0.2 - - - - - - -
22/12:00am 10.8 N 15 23 1007.3 - 0.2 - - - - - - -
 
Date/Time
EDT
Temp

°C
Wind Pressure Rain
since 9am
mm
Weather Cloud Vis
km
Sea
Height
m
Swell
Dir
 
Speed
knots
Gust
knots
hPa Trend Height
m
Period
s
Dir
21/11:30pm 11.0 NNW 14 20 1007.7 - 0.2 - - - - - - -
21/11:00pm 10.9 N 15 21 1007.7 - 0.2 - - - - - - -
21/10:30pm 10.8 NNW 16 21 1008.1 - 0.2 - - - - - - -
21/10:00pm 10.9 NNW 18 22 1008.3 - 0.2 - - - - - - -
21/09:30pm 10.9 NNW 19 24 1008.4 - 0.2 - - - - - - -
21/09:00pm 10.6 NNW 18 23 1008.1 - 0.2 - - - - - - -
21/08:30pm 10.6 NNW 20 24 1008.0 - 0.2 - - - - - - -
21/08:00pm 10.5 NNW 19 24 1008.0 - 0.2 - - - - - - -
21/07:30pm 10.7 NNW 23 26 1007.7 - 0.2 - - - - - - -
21/07:00pm 11.0 NW 25 28 1007.8 - 0.2 - - - - - - -
21/06:30pm 10.9 NW 22 26 1007.2 - 0.2 - - - - - - -
21/06:00pm 10.9 NW 23 26 1007.2 - 0.2 - - - - - - -
21/05:30pm 11.4 NW 24 26 1007.3 - 0.2 - - - - - - -
21/05:00pm 11.5 NW 20 23 1007.1 - 0.2 - - - - - - -
21/04:30pm 11.5 NW 21 25 1007.2 - 0.2 - - - - - - -
21/04:00pm 11.8 NW 20 23 1007.3 - 0.2 - - - - - - -
21/03:30pm 11.9 NW 19 22 1007.2 - 0.2 - - - - - - -
21/03:00pm 11.9 NW 16 24 1007.2 R 0.2 Fine Partly cloudy 20 <0.5 2.5 15 SW
21/02:30pm 11.6 NW 18 22 1007.0 - 0.2 - - - - - - -
21/02:00pm 12.5 NW 17 20 1006.9 - 0.2 - - - - - - -
21/01:30pm 11.3 NW 16 19 1006.8 - 0.2 - - - - - - -
21/01:00pm 11.8 WNW 13 16 1006.7 - 0.0 - - - - - - -
21/12:30pm 10.7 WNW 13 16 1006.6 - 0.0 - - - - - - -
21/12:00pm 11.2 WNW 13 16 1006.7 - 0.0 - - - - - - -
21/11:30am 10.4 W 12 16 1006.6 - 0.0 - - - - - - -
21/11:00am 10.4 W 9 12 1006.4 - 0.0 - - - - - - -
21/10:30am 10.2 WSW 11 13 1006.1 - 0.0 - - - - - - -
21/10:00am 9.7 SW 12 16 1005.7 - 0.0 - - - - - - -
21/09:30am 9.1 SW 14 18 1005.4 - 0.0 - - - - - - -
21/09:00am 9.1 SW 7 17 1005.2 R 12.0 Fine Mostly cloudy 10 <0.5 2.5 14 SW
21/08:30am 8.8 SSW 7 9 1004.8 - 12.0 - - - - - - -
21/08:00am 8.7 SSW 18 23 1004.1 - 12.0 - - - - - - -
21/07:30am 8.9 SSW 11 16 1003.9 - 11.8 - - - - - - -
21/07:00am 9.1 S 18 21 1002.9 - 11.6 - - - - - - -
21/06:30am 9.3 S 18 21 1002.4 - 11.2 - - - - - - -
21/06:00am 9.4 S 17 21 1001.7 R 11.2 Mist Cloudy 3 <0.5 3.0 13 SW
21/05:30am 9.5 S 21 23 1001.0 - 11.2 - - - - - - -
21/05:00am 9.8 S 20 23 1000.9 - 11.0 - - - - - - -
21/04:30am 10.2 S 18 22 1000.7 - 10.8 - - - - - - -
21/04:00am 10.6 S 16 20 1000.2 - 10.8 - - - - - - -
21/03:30am 10.6 WNW 10 12 1000.4 - 10.4 - - - - - - -
21/03:00am 10.8 W 11 14 1000.4 - 10.2 - - - - - - -
21/02:30am 10.9 WNW 10 12 1000.2 - 10.0 - - - - - - -
21/02:00am 10.8 WNW 6 8 1000.1 - 9.4 - - - - - - -
21/01:30am 11.2 SW 8 10 999.9 - 9.2 - - - - - - -
21/01:00am 11.2 WNW 6 8 1000.1 - 8.0 - - - - - - -
21/12:30am 11.2 NW 4 5 1000.3 - 7.6 - - - - - - -
21/12:00am 11.1 NNW 3 5 1000.4 - 7.2 - - - - - - -
 
Date/Time
EDT
Temp

°C
Wind Pressure Rain
since 9am
mm
Weather Cloud Vis
km
Sea
Height
m
Swell
Dir
 
Speed
knots
Gust
knots
hPa Trend Height
m
Period
s
Dir
20/11:30pm 11.2 N 4 5 1000.6 - 7.0 - - - - - - -
20/11:00pm 11.3 NNW 4 6 1000.5 - 6.8 - - - - - - -
20/10:30pm 11.3 N 4 5 1001.0 - 6.2 - - - - - - -
20/10:00pm 11.4 N 4 5 1001.1 - 5.6 - - - - - - -
20/09:30pm 11.4 CALM 0 0 1001.0 - 4.6 - - - - - - -
20/09:00pm 11.5 CALM 0 0 1001.0 - 4.4 - - - - - - -
20/08:30pm 11.7 CALM 0 0 1001.2 - 3.6 - - - - - - -
20/08:00pm 11.7 CALM 0 0 1001.0 - 2.2 - - - - - - -

Other Formats:

Comma delimited format used in spreadsheet applications
http://www.bom.gov.au/fwo/IDT60701/IDT60701.94962.axf

JavaScript Object Notation format (JSON) in row-major order
http://www.bom.gov.au/fwo/IDT60701/IDT60701.94962.json